createdAt,value
2023-12-09T00:01:43.342Z,6.35
2023-12-09T00:04:10.344Z,6.35
2023-12-09T00:06:37.713Z,6.36
2023-12-09T00:09:05.007Z,6.35
2023-12-09T00:11:31.680Z,6.37
2023-12-09T00:14:05.302Z,6.37
2023-12-09T00:16:32.448Z,6.32
2023-12-09T00:19:00.739Z,6.34
2023-12-09T00:21:28.410Z,6.35
2023-12-09T00:23:55.259Z,6.34
2023-12-09T00:26:22.020Z,6.35
2023-12-09T00:28:48.755Z,6.38
2023-12-09T00:31:15.548Z,6.40
2023-12-09T00:33:42.796Z,6.37
2023-12-09T00:36:09.944Z,6.41
2023-12-09T00:38:36.664Z,6.43
2023-12-09T00:41:03.576Z,6.45
2023-12-09T00:43:30.528Z,6.47
2023-12-09T00:45:57.115Z,6.53
2023-12-09T00:48:23.760Z,6.55
2023-12-09T00:50:50.475Z,6.54
2023-12-09T00:53:17.248Z,6.58
2023-12-09T00:55:43.850Z,6.57
2023-12-09T00:58:10.748Z,6.63
2023-12-09T01:00:37.437Z,6.64
2023-12-09T01:03:04.514Z,6.65
2023-12-09T01:05:31.766Z,6.67
2023-12-09T01:07:58.449Z,6.74
2023-12-09T01:10:25.060Z,6.73
2023-12-09T01:12:51.742Z,6.75
2023-12-09T01:15:18.723Z,6.75
2023-12-09T01:17:45.312Z,6.74
2023-12-09T01:20:12.618Z,6.68
2023-12-09T01:22:40.041Z,6.65
2023-12-09T01:25:07.824Z,6.64
2023-12-09T01:27:34.521Z,6.62
2023-12-09T01:30:01.784Z,6.58
2023-12-09T01:32:29.294Z,6.54
2023-12-09T01:34:57.471Z,6.52
2023-12-09T01:37:24.193Z,6.48
2023-12-09T01:39:50.856Z,6.46
2023-12-09T01:42:17.513Z,6.49
2023-12-09T01:44:44.097Z,6.51
2023-12-09T01:47:10.807Z,6.50
2023-12-09T01:49:38.071Z,6.48
2023-12-09T01:52:05.869Z,6.49
2023-12-09T01:54:32.614Z,6.46
2023-12-09T01:57:00.015Z,6.47
2023-12-09T01:59:27.070Z,6.45
2023-12-09T02:01:54.303Z,6.46
2023-12-09T02:04:21.195Z,6.41
2023-12-09T02:06:48.012Z,6.42
2023-12-09T02:09:14.700Z,6.46
2023-12-09T02:14:27.638Z,6.45
2023-12-09T02:17:01.792Z,6.40
2023-12-09T02:19:28.525Z,6.42
2023-12-09T02:22:05.318Z,6.45
2023-12-09T02:24:32.754Z,6.41
2023-12-09T02:27:08.539Z,6.48
2023-12-09T02:29:50.750Z,6.45
2023-12-09T02:32:21.950Z,6.48
2023-12-09T02:34:50.252Z,6.53
2023-12-09T02:37:19.683Z,6.50
2023-12-09T02:39:47.561Z,6.50
2023-12-09T02:42:15.392Z,6.49
2023-12-09T02:44:43.855Z,6.52
2023-12-09T02:47:14.893Z,6.48
2023-12-09T02:49:42.884Z,6.51
2023-12-09T02:52:11.340Z,6.52
2023-12-09T02:54:38.245Z,6.52
2023-12-09T02:57:05.444Z,6.53
2023-12-09T02:59:32.250Z,6.50
2023-12-09T03:01:59.068Z,6.56
2023-12-09T03:04:27.019Z,6.57
2023-12-09T03:06:53.700Z,6.58
2023-12-09T03:09:20.380Z,6.59
2023-12-09T03:11:46.979Z,6.60
2023-12-09T03:14:13.674Z,6.58
2023-12-09T03:16:40.298Z,6.59
2023-12-09T03:19:07.102Z,6.61
2023-12-09T03:21:33.971Z,6.60
2023-12-09T03:24:00.760Z,6.61
2023-12-09T03:26:27.439Z,6.66
2023-12-09T03:28:54.039Z,6.73
2023-12-09T03:31:21.068Z,6.71
2023-12-09T03:33:47.945Z,6.74
2023-12-09T03:36:15.282Z,6.78
2023-12-09T03:38:42.664Z,6.74
2023-12-09T03:41:09.726Z,6.74
2023-12-09T03:43:36.898Z,6.79
2023-12-09T03:46:03.748Z,6.83
2023-12-09T03:48:33.060Z,6.80
2023-12-09T03:51:00.072Z,6.80
2023-12-09T03:53:27.824Z,6.82
2023-12-09T03:55:54.488Z,6.87
2023-12-09T03:58:23.656Z,6.89
2023-12-09T04:00:51.519Z,6.90
2023-12-09T04:03:18.681Z,6.93
2023-12-09T04:05:45.692Z,6.97
2023-12-09T04:08:12.372Z,6.99
2023-12-09T04:10:39.562Z,7.04
2023-12-09T04:13:06.181Z,7.01
2023-12-09T04:15:33.107Z,7.01
2023-12-09T04:18:00.057Z,7.05
2023-12-09T04:20:27.001Z,7.05
2023-12-09T04:22:53.685Z,7.06
2023-12-09T04:25:22.509Z,7.04
2023-12-09T04:27:49.680Z,7.01
2023-12-09T04:30:16.986Z,7.04
2023-12-09T04:32:44.845Z,7.00
2023-12-09T04:35:11.683Z,7.04
2023-12-09T04:37:38.312Z,7.00
2023-12-09T04:40:06.435Z,6.99
2023-12-09T04:42:33.098Z,6.97
2023-12-09T04:44:59.812Z,6.99
2023-12-09T04:47:26.553Z,7.02
2023-12-09T04:49:53.383Z,7.07
2023-12-09T04:52:20.085Z,7.08
2023-12-09T04:54:46.756Z,7.08
2023-12-09T04:57:13.420Z,7.07
2023-12-09T04:59:40.080Z,7.09
2023-12-09T05:02:06.696Z,7.13
2023-12-09T05:04:34.023Z,7.13
2023-12-09T05:07:00.761Z,7.15
2023-12-09T05:09:27.453Z,7.19
2023-12-09T05:11:54.157Z,7.19
2023-12-09T05:14:20.880Z,7.16
2023-12-09T05:16:48.640Z,7.22
2023-12-09T05:19:15.329Z,7.16
2023-12-09T05:21:42.055Z,7.21
2023-12-09T05:24:08.989Z,7.22
2023-12-09T05:26:35.747Z,7.23
2023-12-09T05:29:02.381Z,7.22
2023-12-09T05:31:29.035Z,7.22
2023-12-09T05:33:55.810Z,7.22
2023-12-09T05:36:22.622Z,7.25
2023-12-09T05:38:49.412Z,7.24
2023-12-09T05:41:16.095Z,7.22
2023-12-09T05:43:44.443Z,7.25
2023-12-09T05:46:19.356Z,7.29
2023-12-09T05:48:46.522Z,7.28
2023-12-09T05:51:13.363Z,7.30
2023-12-09T05:53:41.624Z,7.31
2023-12-09T05:56:11.279Z,7.34
2023-12-09T05:58:38.719Z,7.36
2023-12-09T06:01:05.521Z,7.36
2023-12-09T06:03:32.665Z,7.37
2023-12-09T06:05:59.595Z,7.38
2023-12-09T06:08:26.341Z,7.39
2023-12-09T06:10:53.047Z,7.44
2023-12-09T06:13:19.663Z,7.46
2023-12-09T06:15:48.762Z,7.44
2023-12-09T06:18:17.412Z,7.49
2023-12-09T06:20:44.093Z,7.47
2023-12-09T06:23:10.755Z,7.50
2023-12-09T06:25:37.581Z,7.52
2023-12-09T06:28:04.322Z,7.49
2023-12-09T06:30:31.268Z,7.52
2023-12-09T06:32:58.160Z,7.50
2023-12-09T06:35:24.893Z,7.51
2023-12-09T06:37:51.552Z,7.55
2023-12-09T06:40:18.325Z,7.56
2023-12-09T06:42:44.969Z,7.55
2023-12-09T06:45:11.602Z,7.58
2023-12-09T06:47:38.498Z,7.55
2023-12-09T06:50:05.650Z,7.55
2023-12-09T06:52:32.301Z,7.61
2023-12-09T06:54:59.039Z,7.61
2023-12-09T06:57:27.683Z,7.64
2023-12-09T06:59:54.465Z,7.61
2023-12-09T07:02:21.128Z,7.63
2023-12-09T07:04:48.456Z,7.64
2023-12-09T07:07:21.466Z,7.66
2023-12-09T07:09:48.949Z,7.68
2023-12-09T07:12:15.747Z,7.72
2023-12-09T07:14:42.442Z,7.74
2023-12-09T07:17:09.078Z,7.73
2023-12-09T07:19:35.861Z,7.74
2023-12-09T07:22:04.658Z,7.76
2023-12-09T07:24:31.672Z,7.70
2023-12-09T07:26:58.455Z,7.72
2023-12-09T07:29:27.112Z,7.72
2023-12-09T07:31:54.838Z,7.77
2023-12-09T07:34:21.724Z,7.79
2023-12-09T07:36:48.452Z,7.82
2023-12-09T07:39:15.183Z,7.80
2023-12-09T07:41:42.761Z,7.87
2023-12-09T07:44:09.443Z,7.86
2023-12-09T07:46:36.075Z,7.88
2023-12-09T07:49:03.387Z,7.86
2023-12-09T07:51:30.399Z,7.82
2023-12-09T07:53:57.130Z,7.86
2023-12-09T07:56:23.761Z,7.84
2023-12-09T07:58:50.328Z,7.86
2023-12-09T08:01:17.454Z,7.87
2023-12-09T08:03:44.204Z,7.92
2023-12-09T08:06:11.584Z,7.90
2023-12-09T08:08:38.423Z,8.00
2023-12-09T08:11:05.849Z,7.97
2023-12-09T08:13:32.863Z,7.95
2023-12-09T08:15:59.528Z,7.96
2023-12-09T08:18:27.277Z,7.93
2023-12-09T08:20:54.328Z,7.97
2023-12-09T08:23:20.954Z,7.90
2023-12-09T08:25:47.661Z,7.92
2023-12-09T08:28:14.396Z,7.93
2023-12-09T08:30:41.123Z,7.91
2023-12-09T08:33:07.834Z,7.89
2023-12-09T08:35:34.545Z,7.87
2023-12-09T08:38:01.276Z,7.83
2023-12-09T08:40:30.477Z,7.80
2023-12-09T08:42:57.118Z,7.82
2023-12-09T08:45:23.861Z,7.80
2023-12-09T08:47:50.478Z,7.82
2023-12-09T08:52:46.833Z,7.82
2023-12-09T08:55:13.573Z,7.82
2023-12-09T08:57:40.267Z,7.84
2023-12-09T09:00:09.699Z,7.83
2023-12-09T09:02:36.607Z,7.86
2023-12-09T09:05:04.594Z,7.86
2023-12-09T09:07:31.300Z,7.90
2023-12-09T09:09:57.980Z,7.93
2023-12-09T09:12:24.871Z,7.93
2023-12-09T09:14:51.688Z,7.97
2023-12-09T09:17:18.370Z,7.98
2023-12-09T09:19:45.096Z,8.04
2023-12-09T09:22:11.924Z,8.06
2023-12-09T09:24:38.596Z,8.04
2023-12-09T09:27:05.314Z,8.05
2023-12-09T09:29:31.976Z,8.11
2023-12-09T09:31:58.656Z,8.13
2023-12-09T09:34:25.445Z,8.18
2023-12-09T09:36:52.135Z,8.21
2023-12-09T09:39:19.508Z,8.25
2023-12-09T09:41:59.656Z,8.26
2023-12-09T09:44:29.641Z,8.32
2023-12-09T09:46:58.656Z,8.33
2023-12-09T09:49:27.101Z,8.32
2023-12-09T09:51:57.562Z,8.33
2023-12-09T09:54:30.483Z,8.42
2023-12-09T09:56:59.600Z,8.47
2023-12-09T09:59:27.197Z,8.52
2023-12-09T10:01:53.889Z,8.57
2023-12-09T10:04:20.554Z,8.57
2023-12-09T10:06:48.981Z,8.66
2023-12-09T10:09:15.913Z,8.68
2023-12-09T10:11:42.557Z,8.77
2023-12-09T10:14:09.327Z,8.78
2023-12-09T10:16:36.657Z,8.80
2023-12-09T10:19:03.648Z,8.85
2023-12-09T10:21:31.058Z,8.89
2023-12-09T10:23:57.829Z,8.89
2023-12-09T10:26:25.068Z,8.99
2023-12-09T10:28:51.864Z,9.00
2023-12-09T10:31:18.558Z,9.07
2023-12-09T10:33:46.191Z,9.08
2023-12-09T10:36:13.929Z,9.11
2023-12-09T10:38:44.076Z,9.15
2023-12-09T10:41:14.659Z,9.18
2023-12-09T10:43:42.112Z,9.31
2023-12-09T10:46:10.143Z,9.33
2023-12-09T10:48:37.024Z,9.38
2023-12-09T10:51:04.392Z,9.40
2023-12-09T10:53:31.050Z,9.45
2023-12-09T10:55:58.984Z,9.48
2023-12-09T10:58:26.012Z,9.57
2023-12-09T11:00:53.189Z,9.64
2023-12-09T11:03:22.111Z,9.69
2023-12-09T11:05:52.770Z,9.76
2023-12-09T11:08:20.507Z,9.85
2023-12-09T11:10:49.118Z,9.90
2023-12-09T11:13:15.883Z,9.96
2023-12-09T11:15:42.500Z,10.02
2023-12-09T11:18:11.226Z,10.07
2023-12-09T11:20:41.105Z,10.14
2023-12-09T11:23:11.256Z,10.22
2023-12-09T11:25:39.567Z,10.21
2023-12-09T11:28:06.270Z,10.34
2023-12-09T11:30:36.334Z,10.38
2023-12-09T11:33:04.671Z,10.37
2023-12-09T11:35:34.545Z,10.46
2023-12-09T11:38:01.872Z,10.51
2023-12-09T11:40:31.015Z,10.59
2023-12-09T11:42:59.095Z,10.58
2023-12-09T11:45:28.461Z,10.63
2023-12-09T11:47:57.923Z,10.69
2023-12-09T11:50:25.820Z,10.76
2023-12-09T11:52:52.514Z,10.82
2023-12-09T11:55:20.797Z,10.87
2023-12-09T11:57:47.605Z,10.92
2023-12-09T12:00:14.908Z,10.96
2023-12-09T12:02:44.034Z,11.01
2023-12-09T12:05:12.754Z,11.07
2023-12-09T12:07:40.464Z,11.12
2023-12-09T12:10:08.780Z,11.15
2023-12-09T12:12:36.570Z,11.17
2023-12-09T12:15:04.075Z,11.25
2023-12-09T12:17:46.417Z,11.24
2023-12-09T12:20:14.262Z,11.29
2023-12-09T12:22:42.395Z,11.34
2023-12-09T12:25:10.040Z,11.37
2023-12-09T12:27:40.254Z,11.42
2023-12-09T12:30:07.631Z,11.44
2023-12-09T12:32:37.398Z,11.49
2023-12-09T12:35:06.633Z,11.52
2023-12-09T12:37:33.430Z,11.55
2023-12-09T12:40:00.314Z,11.53
2023-12-09T12:42:27.585Z,11.63
2023-12-09T12:44:54.416Z,11.63
2023-12-09T12:47:21.122Z,11.70
2023-12-09T12:49:47.855Z,11.71
2023-12-09T12:52:14.727Z,11.72
2023-12-09T12:54:41.547Z,11.76
2023-12-09T12:57:08.258Z,11.81
2023-12-09T12:59:35.001Z,11.87
2023-12-09T13:02:01.838Z,11.81
2023-12-09T13:04:28.688Z,11.81
2023-12-09T13:06:55.365Z,11.78
2023-12-09T13:09:22.114Z,11.86
2023-12-09T13:11:48.810Z,11.85
2023-12-09T13:14:15.433Z,11.69
2023-12-09T13:16:42.136Z,11.54
2023-12-09T13:19:08.986Z,11.38
2023-12-09T13:21:36.901Z,11.22
2023-12-09T13:24:04.923Z,11.07
2023-12-09T13:26:31.723Z,11.08
2023-12-09T13:28:58.373Z,10.91
2023-12-09T13:31:25.029Z,10.93
2023-12-09T13:33:51.893Z,10.82
2023-12-09T13:36:18.638Z,10.77
2023-12-09T13:38:45.681Z,10.78
2023-12-09T13:41:12.437Z,10.72
2023-12-09T13:43:39.159Z,10.70
2023-12-09T13:46:05.950Z,10.67
2023-12-09T13:48:33.139Z,10.53
2023-12-09T13:51:00.474Z,10.40
2023-12-09T13:53:27.657Z,10.46
2023-12-09T13:55:54.386Z,10.31
2023-12-09T13:58:22.360Z,10.32
2023-12-09T14:00:49.249Z,10.21
2023-12-09T14:03:16.124Z,10.24
2023-12-09T14:05:42.857Z,10.19
2023-12-09T14:08:09.609Z,10.17
2023-12-09T14:10:36.335Z,10.17
2023-12-09T14:13:03.030Z,10.15
2023-12-09T14:15:29.851Z,10.15
2023-12-09T14:17:56.771Z,10.08
2023-12-09T14:20:23.505Z,10.03
2023-12-09T14:22:50.352Z,9.98
2023-12-09T14:25:17.183Z,9.88
2023-12-09T14:27:44.036Z,9.93
2023-12-09T14:30:12.697Z,9.79
2023-12-09T14:32:39.875Z,9.80
2023-12-09T14:35:08.171Z,9.86
2023-12-09T14:37:35.330Z,9.84
2023-12-09T14:40:02.771Z,9.76
2023-12-09T14:42:29.662Z,9.80
2023-12-09T14:44:56.574Z,9.80
2023-12-09T14:47:23.600Z,9.80
2023-12-09T14:49:50.441Z,9.87
2023-12-09T14:52:17.552Z,9.84
2023-12-09T14:54:44.233Z,9.85
2023-12-09T14:57:11.676Z,9.82
2023-12-09T14:59:39.747Z,9.82
2023-12-09T15:02:06.915Z,9.83
2023-12-09T15:04:33.549Z,9.84
2023-12-09T15:07:00.339Z,9.80
2023-12-09T15:09:27.391Z,9.74
2023-12-09T15:11:54.049Z,9.72
2023-12-09T15:14:20.748Z,9.75
2023-12-09T15:16:47.462Z,9.66
2023-12-09T15:19:14.597Z,9.66
2023-12-09T15:21:41.405Z,9.60
2023-12-09T15:24:08.502Z,9.52
2023-12-09T15:26:35.210Z,9.61
2023-12-09T15:29:02.071Z,9.60
2023-12-09T15:31:28.808Z,9.59
2023-12-09T15:33:55.754Z,9.59
2023-12-09T15:36:22.753Z,9.54
2023-12-09T15:38:49.505Z,9.56
2023-12-09T15:41:16.252Z,9.56
2023-12-09T15:43:43.087Z,9.53
2023-12-09T15:46:09.782Z,9.61
2023-12-09T15:48:36.613Z,9.51
2023-12-09T15:51:06.315Z,9.52
2023-12-09T15:53:38.113Z,9.57
2023-12-09T15:56:07.166Z,9.55
2023-12-09T15:58:34.445Z,9.46
2023-12-09T16:01:02.595Z,9.58
2023-12-09T16:03:29.631Z,9.48
2023-12-09T16:05:56.651Z,9.56
2023-12-09T16:08:25.897Z,9.56
2023-12-09T16:10:52.864Z,9.49
2023-12-09T16:13:19.487Z,9.44
2023-12-09T16:15:46.182Z,9.43
2023-12-09T16:18:14.122Z,9.43
2023-12-09T16:20:40.934Z,9.42
2023-12-09T16:23:07.686Z,9.37
2023-12-09T16:25:35.570Z,9.32
2023-12-09T16:28:02.491Z,9.34
2023-12-09T16:30:30.197Z,9.39
2023-12-09T16:32:57.038Z,9.35
2023-12-09T16:35:23.796Z,9.39
2023-12-09T16:37:51.011Z,9.38
2023-12-09T16:40:17.696Z,9.32
2023-12-09T16:42:44.654Z,9.43
2023-12-09T16:45:12.653Z,9.41
2023-12-09T16:47:42.353Z,9.28
2023-12-09T16:50:11.987Z,9.15
2023-12-09T16:52:39.649Z,9.23
2023-12-09T16:55:07.019Z,9.22
2023-12-09T16:57:33.833Z,9.15
2023-12-09T17:00:00.724Z,9.02
2023-12-09T17:02:27.870Z,9.00
2023-12-09T17:04:54.833Z,9.03
2023-12-09T17:07:22.097Z,9.03
2023-12-09T17:09:49.026Z,8.89
2023-12-09T17:12:15.921Z,8.90
2023-12-09T17:14:42.597Z,8.92
2023-12-09T17:17:09.351Z,8.87
2023-12-09T17:19:36.197Z,8.76
2023-12-09T17:22:03.157Z,8.71
2023-12-09T17:24:31.309Z,8.73
2023-12-09T17:26:58.479Z,8.76
2023-12-09T17:29:25.357Z,8.73
2023-12-09T17:31:52.016Z,8.71
2023-12-09T17:34:18.791Z,8.69
2023-12-09T17:36:45.630Z,8.74
2023-12-09T17:39:13.899Z,8.72
2023-12-09T17:41:41.177Z,8.68
2023-12-09T17:44:07.976Z,8.62
2023-12-09T17:46:35.055Z,8.65
2023-12-09T17:49:01.982Z,8.59
2023-12-09T17:51:28.702Z,8.63
2023-12-09T17:53:55.378Z,8.66
2023-12-09T17:56:22.085Z,8.61
2023-12-09T17:58:54.435Z,8.64
2023-12-09T18:01:22.585Z,8.58
2023-12-09T18:03:49.457Z,8.57
2023-12-09T18:06:16.779Z,8.59
2023-12-09T18:08:43.494Z,8.56
2023-12-09T18:11:11.319Z,8.45
2023-12-09T18:13:38.031Z,8.52
2023-12-09T18:16:05.145Z,8.47
2023-12-09T18:18:31.994Z,8.42
2023-12-09T18:20:59.120Z,8.37
2023-12-09T18:23:28.570Z,8.37
2023-12-09T18:25:55.430Z,8.45
2023-12-09T18:28:22.295Z,8.45
2023-12-09T18:30:49.288Z,8.37
2023-12-09T18:33:16.273Z,8.46
2023-12-09T18:35:43.099Z,8.52
2023-12-09T18:38:09.976Z,8.41
2023-12-09T18:40:36.641Z,8.41
2023-12-09T18:43:03.307Z,8.43
2023-12-09T18:45:29.917Z,8.45
2023-12-09T18:47:56.809Z,8.40
2023-12-09T18:50:23.678Z,8.46
2023-12-09T18:52:52.291Z,8.43
2023-12-09T18:55:18.926Z,8.35
2023-12-09T18:57:46.431Z,8.38
2023-12-09T19:00:13.979Z,8.42
2023-12-09T19:02:40.718Z,8.47
2023-12-09T19:05:08.000Z,8.53
2023-12-09T19:07:35.003Z,8.34
2023-12-09T19:10:05.081Z,8.44
2023-12-09T19:12:33.169Z,8.41
2023-12-09T19:15:00.131Z,8.27
2023-12-09T19:17:26.967Z,8.36
2023-12-09T19:19:53.749Z,8.42
2023-12-09T19:22:20.513Z,8.39
2023-12-09T19:24:47.809Z,8.48
2023-12-09T19:27:14.714Z,8.47
2023-12-09T19:29:41.482Z,8.49
2023-12-09T19:32:09.231Z,8.61
2023-12-09T19:34:37.031Z,8.65
2023-12-09T19:37:04.231Z,8.69
2023-12-09T19:39:30.999Z,8.72
2023-12-09T19:41:57.734Z,8.72
2023-12-09T19:44:25.103Z,8.72
2023-12-09T19:46:54.902Z,8.79
2023-12-09T19:49:21.739Z,8.77
2023-12-09T19:51:48.582Z,8.66
2023-12-09T19:54:15.386Z,8.73
2023-12-09T19:56:42.084Z,8.81
2023-12-09T19:59:08.889Z,8.76
2023-12-09T20:01:35.576Z,8.71
2023-12-09T20:04:02.575Z,8.73
2023-12-09T20:06:29.935Z,8.71
2023-12-09T20:08:57.106Z,8.69
2023-12-09T20:11:23.815Z,8.74
2023-12-09T20:13:50.549Z,8.76
2023-12-09T20:16:17.388Z,8.77
2023-12-09T20:18:44.105Z,8.82
2023-12-09T20:21:10.874Z,8.82
2023-12-09T20:23:37.637Z,8.76
2023-12-09T20:26:04.672Z,8.79
2023-12-09T20:28:31.373Z,8.82
2023-12-09T20:31:01.039Z,8.80
2023-12-09T20:33:28.601Z,8.85
2023-12-09T20:35:55.422Z,8.81
2023-12-09T20:38:22.308Z,8.77
2023-12-09T20:40:49.104Z,8.88
2023-12-09T20:43:15.955Z,8.86
2023-12-09T20:45:42.948Z,8.87
2023-12-09T20:48:09.750Z,8.86
2023-12-09T20:50:37.269Z,8.89
2023-12-09T20:53:07.098Z,8.85
2023-12-09T20:55:33.737Z,8.82
2023-12-09T20:58:00.424Z,8.86
2023-12-09T21:00:27.404Z,8.82
2023-12-09T21:02:54.204Z,8.89
2023-12-09T21:05:21.131Z,8.87
2023-12-09T21:07:48.478Z,8.80
2023-12-09T21:10:15.157Z,8.84
2023-12-09T21:12:41.990Z,8.85
2023-12-09T21:15:09.155Z,8.80
2023-12-09T21:17:35.940Z,8.79
2023-12-09T21:20:03.736Z,8.84
2023-12-09T21:22:30.652Z,8.86
2023-12-09T21:24:59.026Z,8.80
2023-12-09T21:27:25.972Z,8.84
2023-12-09T21:29:53.135Z,8.86
2023-12-09T21:32:19.782Z,8.86
2023-12-09T21:34:46.679Z,8.71
2023-12-09T21:37:13.424Z,8.81
2023-12-09T21:39:40.147Z,8.73
2023-12-09T21:42:08.881Z,8.79
2023-12-09T21:44:36.100Z,8.71
2023-12-09T21:47:02.882Z,8.80
2023-12-09T21:49:29.560Z,8.81
2023-12-09T21:51:56.317Z,8.77
2023-12-09T21:54:23.170Z,8.79
2023-12-09T21:56:50.058Z,8.79
2023-12-09T21:59:16.694Z,8.87
2023-12-09T22:01:44.005Z,8.85
2023-12-09T22:04:10.930Z,8.90
2023-12-09T22:06:37.661Z,8.88
2023-12-09T22:09:04.464Z,8.87
2023-12-09T22:11:31.288Z,8.83
2023-12-09T22:13:58.055Z,8.85
2023-12-09T22:16:24.944Z,8.82
2023-12-09T22:18:51.831Z,8.82
2023-12-09T22:21:18.776Z,8.83
2023-12-09T22:23:45.498Z,8.81
2023-12-09T22:26:12.135Z,8.80
2023-12-09T22:28:40.790Z,8.73
2023-12-09T22:31:09.670Z,8.80
2023-12-09T22:33:38.085Z,8.77
2023-12-09T22:36:05.202Z,8.74
2023-12-09T22:38:32.055Z,8.77
2023-12-09T22:40:58.787Z,8.73
2023-12-09T22:43:25.673Z,8.73
2023-12-09T22:45:52.741Z,8.72
2023-12-09T22:48:19.923Z,8.72
2023-12-09T22:50:46.789Z,8.76
2023-12-09T22:53:13.582Z,8.77
2023-12-09T22:55:40.363Z,8.74
2023-12-09T22:58:06.992Z,8.74
2023-12-09T23:00:34.453Z,8.74
2023-12-09T23:03:03.121Z,8.69
2023-12-09T23:05:29.882Z,8.67
2023-12-09T23:07:56.548Z,8.66
2023-12-09T23:10:23.444Z,8.63
2023-12-09T23:12:50.262Z,8.60
2023-12-09T23:15:17.429Z,8.55
2023-12-09T23:17:44.385Z,8.48
2023-12-09T23:20:11.893Z,8.39
2023-12-09T23:22:38.593Z,8.51
2023-12-09T23:25:05.998Z,8.44
2023-12-09T23:27:32.979Z,8.47
2023-12-09T23:29:59.764Z,8.38
2023-12-09T23:32:26.768Z,8.46
2023-12-09T23:34:53.786Z,8.42
2023-12-09T23:37:20.550Z,8.35
2023-12-09T23:39:47.449Z,8.35
2023-12-09T23:42:14.445Z,8.27
2023-12-09T23:44:41.375Z,8.27
2023-12-09T23:47:08.229Z,8.30
2023-12-09T23:49:34.867Z,8.13
2023-12-09T23:52:02.310Z,8.15
2023-12-09T23:54:31.256Z,8.13
2023-12-09T23:56:58.203Z,8.12
2023-12-09T23:59:24.884Z,8.04
